Time;durP1;ratioP1;P1;durP2;ratioP2;P2;SDS_P1;SDS_P2;PMS_P1;PMS_P2;Temp;Humidity;BMP_temperature;BMP_pressure;BME280_temperature;BME280_humidity;BME280_pressure;Samples;Min_cycle;Max_cycle;Signal;HPM_P1;HPM_P2
2022/05/08 00:01:14;;;;;;;;;;;11.70;99.90;;;;;;5004466;28;19926;-72
2022/05/08 00:03:41;;;;;;;;;;;11.70;99.90;;;;;;4999337;28;19933;-71
2022/05/08 00:06:12;;;;;;;;;;;11.70;99.90;;;;;;5003975;28;19926;-72
2022/05/08 00:08:44;;;;;;;;;;;11.60;99.90;;;;;;5018410;28;19930;-72
2022/05/08 00:11:16;;;;;;;;;;;11.60;99.90;;;;;;5001163;28;19926;-72
2022/05/08 00:13:48;;;;;;;;;;;11.60;99.90;;;;;;5001276;28;19926;-72
2022/05/08 00:16:15;;;;;;;;;;;11.60;99.90;;;;;;5004444;28;19926;-71
2022/05/08 00:18:46;;;;;;;;;;;11.60;99.90;;;;;;5002526;28;19929;-72
2022/05/08 00:21:18;;;;;;;;;;;11.60;99.90;;;;;;5003000;28;19933;-72
2022/05/08 00:23:50;;;;;;;;;;;11.60;99.90;;;;;;5000470;28;19929;-73
2022/05/08 00:26:21;;;;;;;;;;;11.60;99.90;;;;;;5002587;28;19948;-71
2022/05/08 00:28:48;;;;;;;;;;;11.60;99.90;;;;;;5018091;28;19980;-72
2022/05/08 00:31:14;;;;;;;;;;;11.60;99.90;;;;;;5000549;28;19933;-73
2022/05/08 00:33:46;;;;;;;;;;;11.60;99.90;;;;;;5006925;28;19925;-72
2022/05/08 00:36:13;;;;;;;;;;;11.60;99.90;;;;;;5000446;28;19937;-72
2022/05/08 00:38:44;;;;;;;;;;;11.60;99.90;;;;;;5004353;28;19937;-72
2022/05/08 00:41:16;;;;;;;;;;;11.60;99.90;;;;;;5003599;28;19925;-72
2022/05/08 00:43:48;;;;;;;;;;;11.60;99.90;;;;;;5001123;28;20388;-72
2022/05/08 00:46:16;;;;;;;;;;;11.60;99.90;;;;;;5019855;28;19925;-72
2022/05/08 00:48:47;;;;;;;;;;;11.60;99.90;;;;;;5002086;28;19933;-72
2022/05/08 00:51:19;;;;;;;;;;;11.60;99.90;;;;;;5004533;28;19933;-73
2022/05/08 00:53:52;;;;;;;;;;;11.60;99.90;;;;;;4999421;28;19929;-71
2022/05/08 00:56:23;;;;;;;;;;;11.50;99.90;;;;;;5018068;28;20393;-72
2022/05/08 00:58:55;;;;;;;;;;;11.50;99.90;;;;;;5003478;28;19932;-72
2022/05/08 01:01:28;;;;;;;;;;;11.50;99.90;;;;;;5003527;28;20297;-72
2022/05/08 01:03:59;;;;;;;;;;;11.50;99.90;;;;;;4997057;28;19937;-72
2022/05/08 01:06:31;;;;;;;;;;;11.50;99.90;;;;;;5001656;28;19929;-72
2022/05/08 01:08:58;;;;;;;;;;;11.50;99.90;;;;;;5014373;28;19929;-72
2022/05/08 01:11:30;;;;;;;;;;;11.40;99.90;;;;;;4997861;28;19936;-72
2022/05/08 01:14:02;;;;;;;;;;;11.40;99.90;;;;;;4995344;28;19946;-72
2022/05/08 01:16:34;;;;;;;;;;;11.40;99.90;;;;;;5003180;28;19930;-72
2022/05/08 01:19:01;;;;;;;;;;;11.30;99.90;;;;;;5000000;28;20387;-72
2022/05/08 01:21:38;;;;;;;;;;;11.30;99.90;;;;;;5002518;28;19925;-72
2022/05/08 01:24:10;;;;;;;;;;;11.30;99.90;;;;;;4997157;28;19929;-71
2022/05/08 01:26:42;;;;;;;;;;;11.20;99.90;;;;;;5016064;28;19929;-72
2022/05/08 01:29:13;;;;;;;;;;;11.20;99.90;;;;;;5000227;28;20394;-72
2022/05/08 01:31:45;;;;;;;;;;;11.20;99.90;;;;;;4999209;28;19934;-72
2022/05/08 01:34:17;;;;;;;;;;;11.20;99.90;;;;;;5021219;28;19932;-72
2022/05/08 01:36:50;;;;;;;;;;;11.10;99.90;;;;;;5009502;28;20024;-72
2022/05/08 01:39:21;;;;;;;;;;;11.10;99.90;;;;;;5005183;28;19933;-72
2022/05/08 01:41:53;;;;;;;;;;;11.10;99.90;;;;;;5002926;28;19925;-72
2022/05/08 01:44:24;;;;;;;;;;;11.10;99.90;;;;;;5019084;28;19949;-72
2022/05/08 01:49:46;;;;;;;;;;;11.10;99.90;;;;;;5002549;28;20024;-72
2022/05/08 01:52:18;;;;;;;;;;;11.10;99.90;;;;;;5007206;28;19926;-72
2022/05/08 01:54:45;;;;;;;;;;;11.00;99.90;;;;;;5009034;28;19925;-72
2022/05/08 01:57:16;;;;;;;;;;;10.90;99.90;;;;;;5001840;28;19930;-72
2022/05/08 01:59:48;;;;;;;;;;;11.00;99.90;;;;;;5003112;28;19932;-73
2022/05/08 02:02:20;;;;;;;;;;;10.90;99.90;;;;;;5004428;28;19937;-72
2022/05/08 02:04:51;;;;;;;;;;;10.90;99.90;;;;;;5004737;28;20391;-72
2022/05/08 02:07:23;;;;;;;;;;;10.90;99.90;;;;;;5007474;28;20024;-73
2022/05/08 02:09:55;;;;;;;;;;;10.90;99.90;;;;;;5018521;28;19926;-72
2022/05/08 02:12:27;;;;;;;;;;;11.00;99.90;;;;;;5002767;28;19926;-72
2022/05/08 02:14:58;;;;;;;;;;;11.00;99.90;;;;;;5007330;28;19936;-72
2022/05/08 02:17:30;;;;;;;;;;;11.00;99.90;;;;;;5024892;28;19934;-72
2022/05/08 02:19:56;;;;;;;;;;;11.00;99.90;;;;;;5005129;28;19948;-72
2022/05/08 02:22:28;;;;;;;;;;;11.00;99.90;;;;;;5000986;28;20317;-72
2022/05/08 02:25:00;;;;;;;;;;;10.90;99.90;;;;;;5006144;28;19933;-72
2022/05/08 02:27:39;;;;;;;;;;;10.90;99.90;;;;;;5019361;28;19981;-72
2022/05/08 02:30:11;;;;;;;;;;;11.00;99.90;;;;;;5003460;28;19932;-71
2022/05/08 02:32:43;;;;;;;;;;;10.90;99.90;;;;;;5001353;28;20001;-73
2022/05/08 02:35:17;;;;;;;;;;;10.90;99.90;;;;;;5003376;28;19932;-72
2022/05/08 02:37:53;;;;;;;;;;;10.90;99.90;;;;;;5003189;28;19929;-73
2022/05/08 02:40:24;;;;;;;;;;;10.90;99.90;;;;;;5020116;28;20037;-72
2022/05/08 02:42:56;;;;;;;;;;;10.90;99.90;;;;;;5000156;28;20425;-72
2022/05/08 02:45:27;;;;;;;;;;;10.90;99.90;;;;;;5004923;28;19936;-73
2022/05/08 02:47:54;;;;;;;;;;;10.90;99.90;;;;;;5000844;28;19957;-72
2022/05/08 02:50:21;;;;;;;;;;;10.90;99.90;;;;;;5001693;28;20011;-72
2022/05/08 02:52:52;;;;;;;;;;;10.90;99.90;;;;;;4998986;28;19936;-72
2022/05/08 02:58:32;;;;;;;;;;;10.90;99.90;;;;;;5004887;28;20398;-74
2022/05/08 03:01:05;;;;;;;;;;;10.90;99.90;;;;;;5003634;28;19932;-72
2022/05/08 03:03:37;;;;;;;;;;;10.90;99.90;;;;;;5021647;28;19933;-73
2022/05/08 03:06:08;;;;;;;;;;;10.90;99.90;;;;;;5003299;28;20283;-72
2022/05/08 03:08:40;;;;;;;;;;;10.90;99.90;;;;;;5000075;28;19929;-72
2022/05/08 03:13:57;;;;;;;;;;;10.90;99.90;;;;;;4998311;28;19929;-72
2022/05/08 03:16:29;;;;;;;;;;;10.80;99.90;;;;;;4999821;28;19925;-72
2022/05/08 03:19:01;;;;;;;;;;;10.80;99.90;;;;;;5016931;28;19926;-72
2022/05/08 03:21:34;;;;;;;;;;;10.80;99.90;;;;;;5000234;28;19933;-72
2022/05/08 03:24:06;;;;;;;;;;;10.70;99.90;;;;;;5003544;28;20325;-73
2022/05/08 03:26:38;;;;;;;;;;;10.70;99.90;;;;;;5002858;28;20473;-73
2022/05/08 03:29:10;;;;;;;;;;;10.70;99.90;;;;;;5001898;28;20028;-72
2022/05/08 03:31:38;;;;;;;;;;;10.70;99.90;;;;;;5003259;28;19929;-73
2022/05/08 03:34:10;;;;;;;;;;;10.60;99.90;;;;;;4999112;28;19937;-71
2022/05/08 03:36:41;;;;;;;;;;;10.60;99.90;;;;;;5003096;28;19925;-72
2022/05/08 03:39:13;;;;;;;;;;;10.60;99.90;;;;;;5001660;28;19936;-72
2022/05/08 03:41:45;;;;;;;;;;;10.60;99.90;;;;;;5002795;28;19926;-73
2022/05/08 03:44:16;;;;;;;;;;;10.60;99.90;;;;;;5001023;28;19956;-72
2022/05/08 03:46:48;;;;;;;;;;;10.60;99.90;;;;;;5006984;28;19926;-72
2022/05/08 03:49:19;;;;;;;;;;;10.60;99.90;;;;;;5004009;28;19989;-74
2022/05/08 03:51:51;;;;;;;;;;;10.60;99.90;;;;;;5001722;28;20310;-72
2022/05/08 03:54:22;;;;;;;;;;;10.60;99.90;;;;;;5019677;28;19957;-72
2022/05/08 03:56:54;;;;;;;;;;;10.60;99.90;;;;;;5003477;28;19926;-73
2022/05/08 03:59:26;;;;;;;;;;;10.60;99.90;;;;;;5000690;28;20024;-72
2022/05/08 04:01:55;;;;;;;;;;;10.50;99.90;;;;;;5006326;28;19932;-72
2022/05/08 04:04:26;;;;;;;;;;;10.50;99.90;;;;;;5019057;28;19933;-72
2022/05/08 04:06:58;;;;;;;;;;;10.50;99.90;;;;;;5009382;28;20420;-72
2022/05/08 04:09:24;;;;;;;;;;;10.50;99.90;;;;;;5012651;28;19932;-72
2022/05/08 04:11:56;;;;;;;;;;;10.50;99.90;;;;;;5010780;28;19937;-73
2022/05/08 04:14:22;;;;;;;;;;;10.50;99.90;;;;;;5005715;28;19930;-72
2022/05/08 04:16:54;;;;;;;;;;;10.50;99.90;;;;;;4994348;28;19932;-72
2022/05/08 04:19:26;;;;;;;;;;;10.50;99.90;;;;;;5002318;28;20477;-73
2022/05/08 04:24:47;;;;;;;;;;;10.50;99.90;;;;;;5000269;28;20023;-72
2022/05/08 04:27:22;;;;;;;;;;;10.50;99.90;;;;;;5019595;28;19964;-72
2022/05/08 04:29:53;;;;;;;;;;;10.50;99.90;;;;;;5017729;28;19925;-72
2022/05/08 04:32:25;;;;;;;;;;;10.50;99.90;;;;;;4999474;28;19930;-72
2022/05/08 04:34:57;;;;;;;;;;;10.50;99.90;;;;;;5004039;28;19968;-73
2022/05/08 04:37:28;;;;;;;;;;;10.50;99.90;;;;;;5003402;28;19926;-72
2022/05/08 04:39:55;;;;;;;;;;;10.40;99.90;;;;;;5012672;28;20014;-72
2022/05/08 04:42:26;;;;;;;;;;;10.40;99.90;;;;;;5002446;28;19926;-73
2022/05/08 04:44:59;;;;;;;;;;;10.40;99.90;;;;;;5004538;28;19933;-72
2022/05/08 04:47:27;;;;;;;;;;;10.40;99.90;;;;;;5003403;28;19932;-73
2022/05/08 04:49:59;;;;;;;;;;;10.40;99.90;;;;;;4999473;28;19926;-73
2022/05/08 04:52:30;;;;;;;;;;;10.40;99.90;;;;;;5004504;28;20437;-73
2022/05/08 04:55:03;;;;;;;;;;;10.50;99.90;;;;;;5002721;28;19925;-72
2022/05/08 04:57:34;;;;;;;;;;;10.50;99.90;;;;;;4999035;28;20290;-73
2022/05/08 05:00:06;;;;;;;;;;;10.50;99.90;;;;;;5000905;28;20028;-71
2022/05/08 05:02:33;;;;;;;;;;;10.50;99.90;;;;;;5003462;28;19925;-73
2022/05/08 05:05:06;;;;;;;;;;;10.50;99.90;;;;;;5004126;28;19934;-72
2022/05/08 05:07:38;;;;;;;;;;;10.60;99.90;;;;;;5007604;28;19926;-72
2022/05/08 05:10:10;;;;;;;;;;;10.60;99.90;;;;;;5000301;28;19953;-72
2022/05/08 05:12:37;;;;;;;;;;;10.60;99.90;;;;;;5002954;28;19926;-72
2022/05/08 05:15:07;;;;;;;;;;;10.60;99.90;;;;;;5005718;28;19968;-73
2022/05/08 05:17:39;;;;;;;;;;;10.60;99.90;;;;;;5003038;28;19930;-73
2022/05/08 05:20:11;;;;;;;;;;;10.70;99.90;;;;;;5029673;28;19925;-73
2022/05/08 05:22:43;;;;;;;;;;;10.70;99.90;;;;;;5006172;28;19933;-73
2022/05/08 05:25:15;;;;;;;;;;;10.70;99.90;;;;;;5010179;28;19926;-73
2022/05/08 05:27:46;;;;;;;;;;;10.70;99.90;;;;;;5008114;28;19926;-73
2022/05/08 05:30:18;;;;;;;;;;;10.80;99.90;;;;;;5006568;28;20390;-73
2022/05/08 05:32:44;;;;;;;;;;;10.70;99.90;;;;;;5010242;28;20449;-73
2022/05/08 05:35:16;;;;;;;;;;;10.70;99.90;;;;;;4997473;28;20401;-73
2022/05/08 05:37:42;;;;;;;;;;;10.70;99.90;;;;;;5013763;28;19937;-73
2022/05/08 05:40:14;;;;;;;;;;;10.70;99.90;;;;;;5013931;28;19926;-74
2022/05/08 05:42:40;;;;;;;;;;;10.70;99.90;;;;;;5024135;28;19926;-73
2022/05/08 05:45:12;;;;;;;;;;;10.70;99.90;;;;;;5004483;28;20016;-72
2022/05/08 05:47:52;;;;;;;;;;;10.70;99.90;;;;;;5008735;28;19926;-73
2022/05/08 05:50:24;;;;;;;;;;;10.70;99.90;;;;;;5023690;28;20417;-73
2022/05/08 05:52:51;;;;;;;;;;;10.70;99.90;;;;;;5011049;28;19933;-73
2022/05/08 05:55:23;;;;;;;;;;;10.80;99.90;;;;;;5013050;28;20394;-73
2022/05/08 05:57:55;;;;;;;;;;;10.80;99.90;;;;;;4997977;28;19932;-73
2022/05/08 06:00:27;;;;;;;;;;;10.80;99.90;;;;;;5009704;28;20028;-73
2022/05/08 06:02:58;;;;;;;;;;;10.90;99.90;;;;;;5008036;28;20967;-73
2022/05/08 06:05:30;;;;;;;;;;;10.90;99.90;;;;;;5013052;28;19925;-73
2022/05/08 06:08:02;;;;;;;;;;;11.00;99.90;;;;;;5014534;28;19952;-73
2022/05/08 06:10:33;;;;;;;;;;;11.00;99.90;;;;;;5009299;28;19925;-73
2022/05/08 06:13:05;;;;;;;;;;;11.00;99.90;;;;;;5005953;28;19929;-73
2022/05/08 06:15:36;;;;;;;;;;;11.10;99.90;;;;;;5011310;28;19925;-73
2022/05/08 06:18:08;;;;;;;;;;;11.10;99.90;;;;;;5000672;28;19949;-73
2022/05/08 06:20:35;;;;;;;;;;;11.10;99.90;;;;;;5008124;28;20025;-73
2022/05/08 06:23:07;;;;;;;;;;;11.10;99.90;;;;;;5026961;28;19925;-73
2022/05/08 06:25:41;;;;;;;;;;;11.10;99.90;;;;;;5009865;28;20004;-72
2022/05/08 06:28:19;;;;;;;;;;;11.20;99.90;;;;;;5016266;28;19926;-73
2022/05/08 06:30:49;;;;;;;;;;;11.20;99.90;;;;;;5011492;28;19932;-72
2022/05/08 06:33:20;;;;;;;;;;;11.30;99.90;;;;;;5009287;28;20145;-73
2022/05/08 06:35:55;;;;;;;;;;;11.30;99.90;;;;;;5009882;28;20029;-73
2022/05/08 06:38:26;;;;;;;;;;;11.30;99.90;;;;;;5028815;28;19926;-73
2022/05/08 06:40:58;;;;;;;;;;;11.40;99.90;;;;;;5009400;28;19926;-73
2022/05/08 06:43:29;;;;;;;;;;;11.50;99.90;;;;;;5006054;28;19937;-73
2022/05/08 06:45:56;;;;;;;;;;;11.50;99.90;;;;;;5008984;28;19933;-73
2022/05/08 06:48:28;;;;;;;;;;;11.60;99.90;;;;;;5011057;28;19931;-73
2022/05/08 06:50:54;;;;;;;;;;;11.60;99.90;;;;;;5010847;28;19930;-73
2022/05/08 06:53:26;;;;;;;;;;;11.70;99.90;;;;;;5010844;28;19936;-73
2022/05/08 06:55:59;;;;;;;;;;;11.70;99.90;;;;;;5009188;28;19932;-73
2022/05/08 07:01:34;;;;;;;;;;;11.80;99.90;;;;;;5006862;28;19926;-73
2022/05/08 07:01:34;;;;;;;;;;;11.90;99.90;;;;;;5005318;28;20428;-73
2022/05/08 07:04:09;;;;;;;;;;;12.00;99.90;;;;;;5025752;28;19934;-72
2022/05/08 07:06:41;;;;;;;;;;;12.20;99.90;;;;;;5015634;28;19930;-73
2022/05/08 07:09:08;;;;;;;;;;;12.20;99.90;;;;;;5000763;28;19926;-73
2022/05/08 07:11:41;;;;;;;;;;;12.40;99.90;;;;;;5002896;28;20020;-73
2022/05/08 07:14:13;;;;;;;;;;;12.50;99.90;;;;;;5023169;28;20425;-73
2022/05/08 07:16:45;;;;;;;;;;;12.50;99.90;;;;;;5024218;28;19929;-73
2022/05/08 07:19:16;;;;;;;;;;;12.60;99.90;;;;;;5020603;28;19940;-73
2022/05/08 07:21:43;;;;;;;;;;;12.70;99.90;;;;;;5007757;28;20378;-73
2022/05/08 07:24:15;;;;;;;;;;;12.70;99.90;;;;;;5001271;28;20306;-72
2022/05/08 07:26:47;;;;;;;;;;;12.80;99.90;;;;;;5008586;28;19926;-72
2022/05/08 07:29:19;;;;;;;;;;;12.90;99.90;;;;;;5000351;28;20310;-73
2022/05/08 07:31:53;;;;;;;;;;;13.00;99.90;;;;;;5008286;28;19925;-73
2022/05/08 07:37:18;;;;;;;;;;;13.10;99.90;;;;;;5003703;28;20259;-73
2022/05/08 07:39:45;;;;;;;;;;;13.20;99.90;;;;;;5006171;28;19929;-73
2022/05/08 07:42:12;;;;;;;;;;;13.30;99.90;;;;;;5006043;28;20297;-73
2022/05/08 07:44:43;;;;;;;;;;;13.40;99.90;;;;;;5009336;28;20386;-73
2022/05/08 07:47:10;;;;;;;;;;;13.50;99.90;;;;;;5008192;28;19969;-73
2022/05/08 07:49:41;;;;;;;;;;;13.50;99.90;;;;;;5006676;28;19933;-73
2022/05/08 07:52:13;;;;;;;;;;;13.60;99.90;;;;;;5004901;28;20309;-73
2022/05/08 07:54:45;;;;;;;;;;;13.70;99.90;;;;;;5003441;28;20257;-73
2022/05/08 07:57:12;;;;;;;;;;;13.70;99.90;;;;;;4999936;28;20298;-73
2022/05/08 07:59:44;;;;;;;;;;;13.80;99.90;;;;;;4999487;28;20025;-72
2022/05/08 08:02:16;;;;;;;;;;;13.80;99.90;;;;;;5018671;28;19933;-73
2022/05/08 08:04:48;;;;;;;;;;;13.90;99.90;;;;;;5010456;28;20016;-73
2022/05/08 08:07:19;;;;;;;;;;;14.00;99.90;;;;;;5022717;28;19926;-73
2022/05/08 08:09:46;;;;;;;;;;;14.00;99.90;;;;;;5006679;28;19926;-73
2022/05/08 08:12:18;;;;;;;;;;;14.20;99.90;;;;;;5016148;28;19948;-73
2022/05/08 08:14:50;;;;;;;;;;;14.20;99.90;;;;;;5010706;28;19948;-73
2022/05/08 08:17:17;;;;;;;;;;;14.30;99.90;;;;;;5013493;28;19926;-72
2022/05/08 08:19:44;;;;;;;;;;;14.40;99.90;;;;;;5022110;28;19925;-73
2022/05/08 08:22:10;;;;;;;;;;;14.40;99.90;;;;;;5008470;28;19925;-73
2022/05/08 08:24:37;;;;;;;;;;;14.50;99.90;;;;;;5012697;28;19932;-73
2022/05/08 08:27:09;;;;;;;;;;;14.60;99.90;;;;;;5016242;28;19929;-73
2022/05/08 08:29:35;;;;;;;;;;;14.70;99.90;;;;;;5007545;28;19984;-73
2022/05/08 08:32:07;;;;;;;;;;;14.80;99.90;;;;;;5004144;28;19929;-73
2022/05/08 08:34:34;;;;;;;;;;;14.90;99.90;;;;;;5009338;28;20032;-73
2022/05/08 08:37:01;;;;;;;;;;;15.00;99.90;;;;;;4996424;28;19930;-73
2022/05/08 08:39:32;;;;;;;;;;;15.10;99.90;;;;;;5002386;28;19930;-73
2022/05/08 08:41:59;;;;;;;;;;;15.20;99.90;;;;;;5019955;28;19926;-73
2022/05/08 08:50:12;;;;;;;;;;;15.50;99.90;;;;;;4998910;28;20539;-73
2022/05/08 08:52:47;;;;;;;;;;;15.60;99.90;;;;;;5002880;28;20383;-73
2022/05/08 08:55:20;;;;;;;;;;;15.60;99.90;;;;;;5026148;28;19936;-73
2022/05/08 08:57:52;;;;;;;;;;;15.60;99.90;;;;;;5008176;28;19937;-73
2022/05/08 09:00:23;;;;;;;;;;;15.60;99.90;;;;;;5005707;28;19937;-73
2022/05/08 09:02:53;;;;;;;;;;;15.60;99.90;;;;;;5005968;28;19926;-73
2022/05/08 09:05:25;;;;;;;;;;;15.50;99.90;;;;;;5006306;28;19925;-73
2022/05/08 09:07:58;;;;;;;;;;;15.50;99.90;;;;;;5011018;28;19936;-73
2022/05/08 09:10:35;;;;;;;;;;;15.40;99.90;;;;;;5005948;28;19925;-72
2022/05/08 09:13:07;;;;;;;;;;;15.40;99.90;;;;;;5024675;28;19932;-72
2022/05/08 09:15:35;;;;;;;;;;;15.30;99.90;;;;;;5025174;28;19925;-73
2022/05/08 09:18:06;;;;;;;;;;;15.30;99.90;;;;;;5008056;28;19930;-73
2022/05/08 09:20:43;;;;;;;;;;;15.20;99.90;;;;;;5002120;28;19933;-73
2022/05/08 09:23:16;;;;;;;;;;;15.20;99.90;;;;;;5007294;28;19932;-73
2022/05/08 09:25:59;;;;;;;;;;;15.10;99.90;;;;;;5009062;28;19931;-72
2022/05/08 09:28:32;;;;;;;;;;;15.10;99.90;;;;;;5003948;28;19933;-72
2022/05/08 09:31:07;;;;;;;;;;;15.10;99.90;;;;;;5006636;28;19941;-73
2022/05/08 09:33:39;;;;;;;;;;;15.00;99.90;;;;;;5008704;28;19937;-73
2022/05/08 09:36:18;;;;;;;;;;;15.00;99.90;;;;;;5011690;28;19932;-72
2022/05/08 09:38:51;;;;;;;;;;;14.90;99.90;;;;;;5008714;28;19932;-73
2022/05/08 09:41:49;;;;;;;;;;;14.90;99.90;;;;;;5012181;28;19929;-73
2022/05/08 09:44:20;;;;;;;;;;;14.90;99.90;;;;;;5027872;28;19932;-73
2022/05/08 09:46:52;;;;;;;;;;;14.80;99.90;;;;;;5016600;28;19944;-72
2022/05/08 09:49:18;;;;;;;;;;;14.80;99.90;;;;;;4999009;28;19956;-72
2022/05/08 09:51:46;;;;;;;;;;;14.80;99.90;;;;;;5014665;28;19925;-72
2022/05/08 09:54:18;;;;;;;;;;;14.80;99.90;;;;;;5023106;28;19933;-73
2022/05/08 09:56:50;;;;;;;;;;;14.80;99.90;;;;;;5028297;28;20301;-73
2022/05/08 09:59:21;;;;;;;;;;;14.90;99.90;;;;;;5020877;28;19926;-72
2022/05/08 10:01:53;;;;;;;;;;;14.90;99.90;;;;;;5008623;28;20031;-73
2022/05/08 10:04:24;;;;;;;;;;;14.90;99.90;;;;;;5005708;28;20437;-73
2022/05/08 10:06:57;;;;;;;;;;;14.90;99.90;;;;;;5013262;28;20020;-71
2022/05/08 10:15:15;;;;;;;;;;;14.70;99.90;;;;;;5028320;28;19933;-74
2022/05/08 10:17:47;;;;;;;;;;;14.60;99.90;;;;;;5022523;28;19933;-73
2022/05/08 10:20:37;;;;;;;;;;;14.50;99.90;;;;;;5013298;28;19925;-73
2022/05/08 10:23:29;;;;;;;;;;;14.40;99.90;;;;;;5007628;28;19949;-73
2022/05/08 10:26:17;;;;;;;;;;;14.40;99.90;;;;;;5023870;28;19929;-73
2022/05/08 10:29:02;;;;;;;;;;;14.30;99.90;;;;;;5006086;28;19926;-73
2022/05/08 10:31:41;;;;;;;;;;;14.30;99.90;;;;;;5004456;28;20843;-74
2022/05/08 10:34:08;;;;;;;;;;;14.30;99.90;;;;;;4995041;28;19930;-73
2022/05/08 10:37:00;;;;;;;;;;;14.30;99.90;;;;;;5029070;28;19925;-73
2022/05/08 10:39:35;;;;;;;;;;;14.30;99.90;;;;;;5025424;28;19925;-74
2022/05/08 10:42:26;;;;;;;;;;;14.30;99.90;;;;;;5009116;28;19937;-73
2022/05/08 10:44:58;;;;;;;;;;;14.30;99.90;;;;;;5010918;28;20385;-73
2022/05/08 10:47:33;;;;;;;;;;;14.40;99.90;;;;;;5009989;28;19932;-73
2022/05/08 10:50:11;;;;;;;;;;;14.40;99.90;;;;;;5003345;28;19933;-73
2022/05/08 10:52:44;;;;;;;;;;;14.60;99.90;;;;;;5008832;28;20294;-73
2022/05/08 10:55:20;;;;;;;;;;;14.70;99.90;;;;;;5005402;28;20329;-73
2022/05/08 10:57:48;;;;;;;;;;;14.80;99.90;;;;;;5004314;28;19925;-73
2022/05/08 11:00:20;;;;;;;;;;;15.00;99.90;;;;;;5007758;28;19925;-73
2022/05/08 11:02:56;;;;;;;;;;;15.10;99.90;;;;;;5010811;28;19934;-73
2022/05/08 11:05:28;;;;;;;;;;;15.20;99.90;;;;;;5019538;28;19925;-73
2022/05/08 11:08:04;;;;;;;;;;;15.40;99.90;;;;;;5007663;28;19961;-72
2022/05/08 11:10:39;;;;;;;;;;;15.40;99.90;;;;;;5011111;28;20701;-73
2022/05/08 11:13:15;;;;;;;;;;;15.50;99.90;;;;;;5009288;28;19952;-73
2022/05/08 11:15:50;;;;;;;;;;;15.50;99.90;;;;;;5006306;28;19929;-73
2022/05/08 11:18:24;;;;;;;;;;;15.50;99.90;;;;;;5007511;28;20076;-73
2022/05/08 11:21:05;;;;;;;;;;;15.50;99.90;;;;;;4995817;28;20584;-73
2022/05/08 11:23:34;;;;;;;;;;;15.60;99.90;;;;;;4999937;28;20294;-73
2022/05/08 11:26:03;;;;;;;;;;;15.60;99.90;;;;;;5006802;28;19953;-73
2022/05/08 11:28:36;;;;;;;;;;;15.60;99.90;;;;;;5001141;28;19930;-73
2022/05/08 11:31:13;;;;;;;;;;;15.70;99.90;;;;;;5004714;28;20851;-73
2022/05/08 11:36:35;;;;;;;;;;;15.80;99.90;;;;;;5005540;28;19926;-73
2022/05/08 11:39:11;;;;;;;;;;;15.90;99.90;;;;;;4992879;28;20016;-73
2022/05/08 11:41:39;;;;;;;;;;;16.00;99.90;;;;;;5011211;28;20521;-73
2022/05/08 11:44:14;;;;;;;;;;;16.10;99.90;;;;;;5009308;28;19938;-73
2022/05/08 11:46:46;;;;;;;;;;;16.20;99.90;;;;;;5009033;28;19926;-73
2022/05/08 11:49:22;;;;;;;;;;;16.30;99.90;;;;;;5001435;28;20629;-73
2022/05/08 11:51:56;;;;;;;;;;;16.40;99.90;;;;;;5000284;28;19929;-72
2022/05/08 11:54:24;;;;;;;;;;;16.50;99.90;;;;;;5002134;28;19933;-73
2022/05/08 11:57:08;;;;;;;;;;;16.60;99.90;;;;;;5013832;28;19929;-72
2022/05/08 11:59:35;;;;;;;;;;;16.70;99.90;;;;;;4997010;28;20310;-72
2022/05/08 12:02:07;;;;;;;;;;;16.80;99.90;;;;;;5004299;28;19930;-72
2022/05/08 12:04:39;;;;;;;;;;;16.80;99.90;;;;;;5004836;28;19926;-72
2022/05/08 12:07:12;;;;;;;;;;;17.00;99.90;;;;;;5006010;28;19936;-72
2022/05/08 12:09:43;;;;;;;;;;;16.90;99.90;;;;;;5014747;28;19933;-72
2022/05/08 12:12:32;;;;;;;;;;;16.90;99.90;;;;;;4993386;28;19930;-72
2022/05/08 12:15:06;;;;;;;;;;;16.80;99.90;;;;;;5012323;28;19934;-72
2022/05/08 12:17:44;;;;;;;;;;;16.70;99.90;;;;;;5008514;28;19930;-72
2022/05/08 12:20:17;;;;;;;;;;;16.50;99.90;;;;;;5003614;28;20480;-72
2022/05/08 12:23:03;;;;;;;;;;;16.30;99.90;;;;;;5000837;28;19925;-72
2022/05/08 12:25:38;;;;;;;;;;;16.10;99.90;;;;;;5003551;28;19926;-72
2022/05/08 12:28:13;;;;;;;;;;;16.00;99.90;;;;;;5013158;28;19965;-72
2022/05/08 12:30:39;;;;;;;;;;;15.90;99.90;;;;;;4992446;28;19972;-72
2022/05/08 12:33:11;;;;;;;;;;;15.80;99.90;;;;;;4999065;28;19931;-72
2022/05/08 12:35:43;;;;;;;;;;;15.80;99.90;;;;;;4998137;28;19926;-72
2022/05/08 12:38:14;;;;;;;;;;;15.80;99.90;;;;;;5003080;28;19937;-72
2022/05/08 12:40:46;;;;;;;;;;;15.80;99.90;;;;;;4997414;28;19925;-72
2022/05/08 12:43:17;;;;;;;;;;;15.90;99.90;;;;;;4997035;28;19925;-72
2022/05/08 12:45:50;;;;;;;;;;;15.80;99.90;;;;;;5002180;28;20387;-72
2022/05/08 12:48:22;;;;;;;;;;;15.80;99.90;;;;;;5001755;28;20017;-72
2022/05/08 12:50:54;;;;;;;;;;;15.70;99.90;;;;;;4998666;28;19929;-73
2022/05/08 12:53:25;;;;;;;;;;;15.70;99.90;;;;;;4997094;28;19930;-72
2022/05/08 12:55:53;;;;;;;;;;;15.60;99.90;;;;;;5003925;28;19930;-72
2022/05/08 13:01:15;;;;;;;;;;;15.60;99.90;;;;;;5003066;28;19941;-72
2022/05/08 13:03:46;;;;;;;;;;;15.50;99.90;;;;;;5004893;28;19977;-72
2022/05/08 13:06:13;;;;;;;;;;;15.50;99.90;;;;;;5002773;28;19929;-72
2022/05/08 13:08:44;;;;;;;;;;;15.40;99.90;;;;;;5001603;28;19925;-71
2022/05/08 13:11:11;;;;;;;;;;;15.50;99.90;;;;;;4997384;28;19930;-72
2022/05/08 13:13:43;;;;;;;;;;;15.50;99.90;;;;;;5000854;28;20410;-72
2022/05/08 13:16:13;;;;;;;;;;;15.40;99.90;;;;;;4995207;28;19925;-72
2022/05/08 13:18:45;;;;;;;;;;;15.50;99.90;;;;;;5001228;28;19933;-72
2022/05/08 13:21:17;;;;;;;;;;;15.50;99.90;;;;;;5001951;28;19933;-73
2022/05/08 13:23:49;;;;;;;;;;;15.40;99.90;;;;;;4995155;28;20393;-73
2022/05/08 13:26:20;;;;;;;;;;;15.40;99.90;;;;;;4989925;28;19933;-73
2022/05/08 13:28:47;;;;;;;;;;;15.40;99.90;;;;;;5006517;28;19933;-72
2022/05/08 13:31:19;;;;;;;;;;;15.40;99.90;;;;;;5004854;28;19983;-73
2022/05/08 13:33:51;;;;;;;;;;;15.40;99.90;;;;;;4997815;28;19929;-73
2022/05/08 13:36:23;;;;;;;;;;;15.50;99.90;;;;;;5011593;28;19937;-72
2022/05/08 13:38:54;;;;;;;;;;;15.50;99.90;;;;;;5007816;28;19926;-73
2022/05/08 13:41:26;;;;;;;;;;;15.50;99.90;;;;;;5002107;28;19926;-72
2022/05/08 13:43:52;;;;;;;;;;;15.50;99.90;;;;;;5003419;28;19936;-72
2022/05/08 13:46:19;;;;;;;;;;;15.60;99.90;;;;;;5009194;28;20404;-72
2022/05/08 13:48:51;;;;;;;;;;;15.70;99.90;;;;;;5008798;28;20385;-72
2022/05/08 13:51:23;;;;;;;;;;;15.70;99.90;;;;;;5000253;28;19933;-72
2022/05/08 13:53:54;;;;;;;;;;;15.80;99.90;;;;;;5003222;28;19940;-72
2022/05/08 13:56:26;;;;;;;;;;;15.80;99.90;;;;;;5003783;28;19925;-72
2022/05/08 13:58:58;;;;;;;;;;;15.80;99.90;;;;;;5004175;28;20414;-72
2022/05/08 14:01:30;;;;;;;;;;;15.80;99.90;;;;;;5000322;28;19925;-72
2022/05/08 14:04:02;;;;;;;;;;;15.80;99.90;;;;;;5002379;28;20298;-72
2022/05/08 14:06:32;;;;;;;;;;;15.80;99.90;;;;;;5007744;28;19979;-72
2022/05/08 14:09:04;;;;;;;;;;;15.80;99.90;;;;;;5018556;28;19930;-72
2022/05/08 14:11:35;;;;;;;;;;;15.80;99.90;;;;;;5019729;28;19925;-72
2022/05/08 14:14:07;;;;;;;;;;;15.70;99.90;;;;;;5020273;28;20028;-72
2022/05/08 14:16:33;;;;;;;;;;;15.60;99.90;;;;;;5006362;28;19925;-72
2022/05/08 14:19:05;;;;;;;;;;;15.60;99.90;;;;;;5005998;28;20276;-73
2022/05/08 14:21:37;;;;;;;;;;;15.60;99.90;;;;;;5000008;28;19933;-72
2022/05/08 14:24:09;;;;;;;;;;;15.60;99.90;;;;;;5002343;28;19940;-72
2022/05/08 14:26:36;;;;;;;;;;;15.50;99.90;;;;;;5005149;28;19925;-72
2022/05/08 14:29:09;;;;;;;;;;;15.60;99.90;;;;;;5001761;28;20398;-72
2022/05/08 14:37:21;;;;;;;;;;;15.50;99.90;;;;;;5001398;28;19925;-73
2022/05/08 14:39:53;;;;;;;;;;;15.60;99.90;;;;;;5002318;28;20437;-72
2022/05/08 14:42:25;;;;;;;;;;;15.60;99.90;;;;;;5005827;28;19929;-72
2022/05/08 14:44:58;;;;;;;;;;;15.60;99.90;;;;;;5016889;28;19983;-73
2022/05/08 14:47:30;;;;;;;;;;;15.70;99.90;;;;;;5002463;28;20322;-72
2022/05/08 14:50:02;;;;;;;;;;;15.70;99.90;;;;;;5001994;28;19933;-72
2022/05/08 14:52:33;;;;;;;;;;;15.80;99.90;;;;;;5014817;28;20038;-73
2022/05/08 14:55:06;;;;;;;;;;;15.80;99.90;;;;;;5002627;28;19934;-72
2022/05/08 14:57:38;;;;;;;;;;;15.90;99.90;;;;;;5007745;28;19933;-73
2022/05/08 15:00:14;;;;;;;;;;;16.00;99.90;;;;;;5003691;28;19930;-72
2022/05/08 15:02:46;;;;;;;;;;;16.10;99.90;;;;;;5013287;28;19936;-72
2022/05/08 15:05:18;;;;;;;;;;;16.10;99.90;;;;;;5005036;28;19926;-72
2022/05/08 15:07:50;;;;;;;;;;;16.20;99.90;;;;;;5004569;28;19936;-72
2022/05/08 15:10:16;;;;;;;;;;;16.20;99.90;;;;;;5006479;28;19925;-73
2022/05/08 15:12:50;;;;;;;;;;;16.30;99.90;;;;;;4999029;28;20357;-72
2022/05/08 15:15:25;;;;;;;;;;;16.40;99.90;;;;;;5010421;28;19929;-72
2022/05/08 15:20:53;;;;;;;;;;;16.50;99.90;;;;;;5002332;28;20032;-72
2022/05/08 15:23:20;;;;;;;;;;;16.60;99.90;;;;;;5002859;28;19933;-72